Terminal Aerodrome Forecast
Issued by NWS Buffalo, NY

Home | Current Version | Previous Version | Text Only | Print | Product List | Glossary On
Versions: 1 2 3 4 5 6 7 8 9 10 11 12 13 14 15 16 17 18 19 20 21 22 23 24 25 26
000
FTUS41 KBUF 221131
TAFART
TAF
KART 221131Z 2212/2312 04007KT P6SM OVC035
     FM221700 10005KT 2SM -RA BR OVC007
     FM230200 11006KT 6SM BR OVC015
     FM230500 15007KT 5SM -RA OVC020
     FM230700 16010KT 6SM -RA OVC030 WS020/18040KT
     FM231100 17009KT 6SM -RA OVC015=

USA.gov is the U.S. government's official web portal to all federal, state and local government web resources and services.